Time;durP1;ratioP1;P1;durP2;ratioP2;P2;SDS_P1;SDS_P2;PMS_P1;PMS_P2;Temp;Humidity;BMP_temperature;BMP_pressure;BME280_temperature;BME280_humidity;BME280_pressure;Samples;Min_cycle;Max_cycle;Signal;HPM_P1;HPM_P2
2022/12/25 00:02:22;;;;;;;;;;;7.80;99.90;;;;;;5066413;28;19921;-69
2022/12/25 00:04:50;;;;;;;;;;;7.80;99.90;;;;;;5065125;28;19921;-69
2022/12/25 00:07:17;;;;;;;;;;;7.80;99.90;;;;;;5065996;28;19988;-70
2022/12/25 00:09:43;;;;;;;;;;;7.80;99.90;;;;;;5066613;28;19988;-69
2022/12/25 00:12:10;;;;;;;;;;;7.80;99.90;;;;;;5066798;28;19921;-69
2022/12/25 00:14:36;;;;;;;;;;;7.80;99.90;;;;;;5066733;28;19921;-70
2022/12/25 00:17:04;;;;;;;;;;;7.80;99.90;;;;;;5066860;28;19952;-69
2022/12/25 00:19:31;;;;;;;;;;;7.80;99.90;;;;;;5066974;28;20004;-69
2022/12/25 00:21:58;;;;;;;;;;;7.80;99.90;;;;;;5066921;28;19920;-69
2022/12/25 00:24:24;;;;;;;;;;;7.70;99.90;;;;;;5066634;28;19956;-69
2022/12/25 00:26:51;;;;;;;;;;;7.70;99.90;;;;;;5066600;28;20120;-69
2022/12/25 00:29:17;;;;;;;;;;;7.60;99.90;;;;;;5066415;28;19975;-68
2022/12/25 00:31:44;;;;;;;;;;;7.60;99.90;;;;;;5066702;28;19928;-69
2022/12/25 00:34:12;;;;;;;;;;;7.60;99.90;;;;;;5066874;28;19952;-69
2022/12/25 00:36:39;;;;;;;;;;;7.60;99.90;;;;;;5066476;28;19971;-69
2022/12/25 00:39:06;;;;;;;;;;;7.50;99.90;;;;;;5066650;28;19950;-71
2022/12/25 00:44:16;;;;;;;;;;;7.50;99.90;;;;;;5066370;28;20119;-69
2022/12/25 00:46:43;;;;;;;;;;;7.50;99.90;;;;;;5065801;28;20008;-69
2022/12/25 00:49:12;;;;;;;;;;;7.40;99.90;;;;;;5066051;28;19963;-69
2022/12/25 00:51:39;;;;;;;;;;;7.40;99.90;;;;;;5066056;28;19983;-69
2022/12/25 00:54:05;;;;;;;;;;;7.40;99.90;;;;;;5066135;28;20209;-69
2022/12/25 00:56:32;;;;;;;;;;;7.40;99.90;;;;;;5066059;28;19963;-69
2022/12/25 00:58:59;;;;;;;;;;;7.40;99.90;;;;;;5066172;28;19963;-68
2022/12/25 01:01:25;;;;;;;;;;;7.40;99.90;;;;;;5066391;28;20269;-69
2022/12/25 01:03:52;;;;;;;;;;;7.30;99.90;;;;;;5064482;28;19956;-69
2022/12/25 01:06:20;;;;;;;;;;;7.30;99.90;;;;;;5066030;28;19983;-68
2022/12/25 01:11:27;;;;;;;;;;;7.20;99.90;;;;;;5065408;28;19921;-69
2022/12/25 01:13:53;;;;;;;;;;;7.10;99.90;;;;;;5066057;28;19948;-69
2022/12/25 01:16:20;;;;;;;;;;;7.10;99.90;;;;;;5065760;28;19988;-70
2022/12/25 01:18:47;;;;;;;;;;;7.00;99.90;;;;;;5065730;28;19952;-69
2022/12/25 01:21:15;;;;;;;;;;;7.00;99.90;;;;;;5065925;28;19928;-68
2022/12/25 01:23:43;;;;;;;;;;;6.90;99.90;;;;;;5065935;28;20228;-69
2022/12/25 01:26:12;;;;;;;;;;;6.80;99.90;;;;;;5065666;28;19948;-69
2022/12/25 01:28:38;;;;;;;;;;;6.80;99.90;;;;;;5065706;28;19986;-69
2022/12/25 01:31:08;;;;;;;;;;;6.70;99.90;;;;;;5065251;28;19921;-69
2022/12/25 01:33:34;;;;;;;;;;;6.70;99.90;;;;;;5065561;28;19987;-69
2022/12/25 01:36:02;;;;;;;;;;;6.70;99.90;;;;;;5064727;28;19927;-69
2022/12/25 01:38:29;;;;;;;;;;;6.70;99.90;;;;;;5065473;28;20123;-69
2022/12/25 01:40:57;;;;;;;;;;;6.60;99.90;;;;;;5065291;28;19983;-69
2022/12/25 01:43:25;;;;;;;;;;;6.60;99.90;;;;;;5065474;28;19927;-69
2022/12/25 01:45:52;;;;;;;;;;;6.60;99.90;;;;;;5065374;28;19952;-67
2022/12/25 01:48:20;;;;;;;;;;;6.60;99.90;;;;;;5065248;28;20201;-69
2022/12/25 01:50:49;;;;;;;;;;;6.60;99.90;;;;;;5064090;28;19921;-69
2022/12/25 01:53:16;;;;;;;;;;;6.60;99.90;;;;;;5064971;28;19956;-69
2022/12/25 01:55:44;;;;;;;;;;;6.50;99.90;;;;;;5065119;28;19971;-68
2022/12/25 01:58:12;;;;;;;;;;;6.50;99.90;;;;;;5064992;28;19963;-70
2022/12/25 02:00:38;;;;;;;;;;;6.50;99.90;;;;;;5065297;28;19983;-69
2022/12/25 02:03:05;;;;;;;;;;;6.50;99.90;;;;;;5065213;28;19952;-69
2022/12/25 02:05:34;;;;;;;;;;;6.50;99.90;;;;;;5064645;28;20163;-69
2022/12/25 02:08:01;;;;;;;;;;;6.40;99.90;;;;;;5064571;28;19920;-68
2022/12/25 02:10:28;;;;;;;;;;;6.40;99.90;;;;;;5064827;28;19960;-69
2022/12/25 02:12:55;;;;;;;;;;;6.40;99.90;;;;;;5064838;28;19921;-68
2022/12/25 02:15:27;;;;;;;;;;;6.40;99.90;;;;;;5064398;28;19959;-69
2022/12/25 02:17:59;;;;;;;;;;;6.40;99.90;;;;;;5064459;28;20168;-69
2022/12/25 02:20:50;;;;;;;;;;;6.40;99.90;;;;;;5064339;28;19921;-69
2022/12/25 02:23:43;;;;;;;;;;;6.30;99.90;;;;;;5064473;28;19944;-67
2022/12/25 02:26:16;;;;;;;;;;;6.40;99.90;;;;;;5064128;28;19963;-69
2022/12/25 02:28:45;;;;;;;;;;;6.40;99.90;;;;;;5064256;28;20209;-69
2022/12/25 02:31:14;;;;;;;;;;;6.40;99.90;;;;;;5063420;28;20231;-69
2022/12/25 02:36:29;;;;;;;;;;;6.40;99.90;;;;;;5063071;28;20258;-69
2022/12/25 02:41:43;;;;;;;;;;;6.40;99.90;;;;;;5064124;28;20219;-69
2022/12/25 03:06:42;;;;;;;;;;;6.40;99.90;;;;;;5026308;28;19920;-90
2022/12/25 03:11:56;;;;;;;;;;;6.50;99.90;;;;;;5093753;22;19978;-72
2022/12/25 03:17:17;;;;;;;;;;;6.40;99.90;;;;;;5042848;28;19989;-72
2022/12/25 03:28:01;;;;;;;;;;;6.30;99.90;;;;;;5063014;28;19985;-75
2022/12/25 03:33:21;;;;;;;;;;;6.30;99.90;;;;;;5063839;28;19955;-75
2022/12/25 03:36:01;;;;;;;;;;;6.30;99.90;;;;;;5063569;28;19921;-72
2022/12/25 04:36:49;;;;;;;;;;;6.80;99.90;;;;;;5062904;28;19954;-72
2022/12/25 04:39:17;;;;;;;;;;;6.80;99.90;;;;;;5065682;28;19928;-72
2022/12/25 04:41:43;;;;;;;;;;;6.80;99.90;;;;;;5067064;28;19992;-73
2022/12/25 04:44:10;;;;;;;;;;;6.80;99.90;;;;;;5067166;28;19987;-73
2022/12/25 04:46:37;;;;;;;;;;;6.80;99.90;;;;;;5066716;28;19979;-73
2022/12/25 04:49:03;;;;;;;;;;;6.80;99.90;;;;;;5067014;28;19952;-73
2022/12/25 04:51:30;;;;;;;;;;;6.80;99.90;;;;;;5066623;28;20239;-72
2022/12/25 04:53:56;;;;;;;;;;;6.80;99.90;;;;;;5066976;28;19927;-72
2022/12/25 04:56:24;;;;;;;;;;;6.80;99.90;;;;;;5058202;28;19964;-73
2022/12/25 04:58:51;;;;;;;;;;;6.80;99.90;;;;;;5066824;28;19921;-73
2022/12/25 05:01:18;;;;;;;;;;;6.80;99.90;;;;;;5066755;28;19952;-73
2022/12/25 05:03:44;;;;;;;;;;;6.80;99.90;;;;;;5066215;28;19957;-73
2022/12/25 05:06:11;;;;;;;;;;;6.70;99.90;;;;;;5066348;28;19988;-73
2022/12/25 05:08:38;;;;;;;;;;;6.80;99.90;;;;;;5066310;28;19963;-72
2022/12/25 05:11:06;;;;;;;;;;;6.80;99.90;;;;;;5065635;28;19980;-73
2022/12/25 05:13:34;;;;;;;;;;;6.80;99.90;;;;;;5066347;28;19980;-73
2022/12/25 05:16:03;;;;;;;;;;;6.80;99.90;;;;;;5066245;28;19920;-72
2022/12/25 05:18:30;;;;;;;;;;;6.80;99.90;;;;;;5066389;28;19952;-72
2022/12/25 05:20:57;;;;;;;;;;;6.80;99.90;;;;;;5066001;28;19984;-73
2022/12/25 05:23:23;;;;;;;;;;;6.80;99.90;;;;;;5065783;28;19956;-72
2022/12/25 05:25:50;;;;;;;;;;;6.70;99.90;;;;;;5065758;28;19980;-73
2022/12/25 05:28:17;;;;;;;;;;;6.70;99.90;;;;;;5066064;28;19988;-72
2022/12/25 05:30:44;;;;;;;;;;;6.70;99.90;;;;;;5066255;28;19979;-72
2022/12/25 05:33:11;;;;;;;;;;;6.70;99.90;;;;;;5066056;28;19980;-72
2022/12/25 05:35:38;;;;;;;;;;;6.60;99.90;;;;;;5066070;28;20237;-73
2022/12/25 05:38:05;;;;;;;;;;;6.60;99.90;;;;;;5065986;28;19921;-73
2022/12/25 05:40:32;;;;;;;;;;;6.50;99.90;;;;;;5065985;28;19984;-72
2022/12/25 05:42:58;;;;;;;;;;;6.50;99.90;;;;;;5065669;28;20260;-73
2022/12/25 05:45:25;;;;;;;;;;;6.50;99.90;;;;;;5065766;28;19963;-72
2022/12/25 05:47:53;;;;;;;;;;;6.50;99.90;;;;;;5065634;28;19960;-73
2022/12/25 05:50:20;;;;;;;;;;;6.50;99.90;;;;;;5064761;28;19984;-73
2022/12/25 05:52:46;;;;;;;;;;;6.40;99.90;;;;;;5065564;28;20064;-73
2022/12/25 05:55:13;;;;;;;;;;;6.40;99.90;;;;;;5065531;28;19975;-73
2022/12/25 05:57:39;;;;;;;;;;;6.40;99.90;;;;;;5065516;28;20148;-73
2022/12/25 06:00:07;;;;;;;;;;;6.40;99.90;;;;;;5065406;28;19984;-73
2022/12/25 06:02:34;;;;;;;;;;;6.40;99.90;;;;;;5065654;28;19987;-72
2022/12/25 06:05:06;;;;;;;;;;;6.40;99.90;;;;;;5065231;28;19925;-72
2022/12/25 06:07:32;;;;;;;;;;;6.40;99.90;;;;;;5064975;28;20231;-72
2022/12/25 06:09:59;;;;;;;;;;;6.40;99.90;;;;;;5065115;28;19928;-72
2022/12/25 06:12:26;;;;;;;;;;;6.40;99.90;;;;;;5065277;28;19964;-72
2022/12/25 06:14:52;;;;;;;;;;;6.40;99.90;;;;;;5065394;28;19952;-72
2022/12/25 06:17:19;;;;;;;;;;;6.40;99.90;;;;;;5065135;28;19927;-72
2022/12/25 06:19:45;;;;;;;;;;;6.50;99.90;;;;;;5064900;28;19959;-72
2022/12/25 06:22:13;;;;;;;;;;;6.50;99.90;;;;;;5064706;28;20184;-72
2022/12/25 06:24:40;;;;;;;;;;;6.60;99.90;;;;;;5065127;28;19927;-72
2022/12/25 06:27:07;;;;;;;;;;;6.70;99.90;;;;;;5064739;28;19984;-72
2022/12/25 06:29:33;;;;;;;;;;;6.70;99.90;;;;;;5064689;28;20243;-72
2022/12/25 06:32:00;;;;;;;;;;;6.60;99.90;;;;;;5064954;28;19963;-73
2022/12/25 06:34:27;;;;;;;;;;;6.60;99.90;;;;;;5064900;28;19981;-72
2022/12/25 06:36:54;;;;;;;;;;;6.60;99.90;;;;;;5064588;28;20100;-73
2022/12/25 06:39:24;;;;;;;;;;;6.60;99.90;;;;;;5065051;28;19980;-72
2022/12/25 06:41:50;;;;;;;;;;;6.60;99.90;;;;;;5064676;28;19921;-72
2022/12/25 06:44:17;;;;;;;;;;;6.70;99.90;;;;;;5064723;28;19931;-73
2022/12/25 06:46:44;;;;;;;;;;;6.70;99.90;;;;;;5064150;28;19976;-72
2022/12/25 06:49:10;;;;;;;;;;;6.70;99.90;;;;;;5064708;28;19980;-72
2022/12/25 06:51:37;;;;;;;;;;;6.70;99.90;;;;;;5063652;28;19929;-72
2022/12/25 06:54:04;;;;;;;;;;;6.70;99.90;;;;;;5064701;28;19956;-72
2022/12/25 06:56:33;;;;;;;;;;;6.80;99.90;;;;;;5063759;28;19928;-72
2022/12/25 06:59:00;;;;;;;;;;;6.80;99.90;;;;;;5064355;28;19984;-72
2022/12/25 07:01:28;;;;;;;;;;;6.80;99.90;;;;;;5064257;28;19920;-72
2022/12/25 07:03:56;;;;;;;;;;;6.80;99.90;;;;;;5063961;28;19988;-72
2022/12/25 07:06:23;;;;;;;;;;;6.80;99.90;;;;;;5063845;28;20279;-72
2022/12/25 07:08:50;;;;;;;;;;;6.80;99.90;;;;;;5064436;28;19963;-72
2022/12/25 07:11:17;;;;;;;;;;;6.80;99.90;;;;;;5063566;28;19988;-72
2022/12/25 07:13:45;;;;;;;;;;;6.90;99.90;;;;;;5063974;28;19921;-72
2022/12/25 07:16:12;;;;;;;;;;;6.80;99.90;;;;;;5063911;28;19988;-72
2022/12/25 07:18:40;;;;;;;;;;;6.80;99.90;;;;;;5063321;28;19920;-72
2022/12/25 07:21:16;;;;;;;;;;;6.90;99.90;;;;;;5063441;28;19983;-72
2022/12/25 07:23:43;;;;;;;;;;;6.90;99.90;;;;;;5064067;28;19967;-73
2022/12/25 07:26:10;;;;;;;;;;;6.90;99.90;;;;;;5052602;28;19984;-72
2022/12/25 07:28:37;;;;;;;;;;;6.90;99.90;;;;;;5063827;28;19988;-72
2022/12/25 07:31:07;;;;;;;;;;;6.90;99.90;;;;;;5063249;28;19927;-72
2022/12/25 07:33:34;;;;;;;;;;;6.90;99.90;;;;;;5064071;28;19984;-72
2022/12/25 07:36:04;;;;;;;;;;;6.90;99.90;;;;;;5062643;28;19925;-72
2022/12/25 07:38:30;;;;;;;;;;;7.00;99.90;;;;;;5063595;28;19920;-72
2022/12/25 07:40:57;;;;;;;;;;;7.00;99.90;;;;;;5061897;28;19956;-72
2022/12/25 07:43:24;;;;;;;;;;;7.00;99.90;;;;;;5063516;28;20165;-73
2022/12/25 07:45:53;;;;;;;;;;;7.10;99.90;;;;;;5063599;28;19984;-72
2022/12/25 07:48:21;;;;;;;;;;;7.10;99.90;;;;;;5063553;28;19983;-72
2022/12/25 07:50:48;;;;;;;;;;;7.10;99.90;;;;;;5063668;28;19920;-72
2022/12/25 07:53:14;;;;;;;;;;;7.10;99.90;;;;;;5063562;28;19991;-72
2022/12/25 07:55:41;;;;;;;;;;;7.00;99.90;;;;;;5063500;28;19952;-72
2022/12/25 07:58:08;;;;;;;;;;;7.00;99.90;;;;;;5063544;28;19928;-72
2022/12/25 08:00:34;;;;;;;;;;;7.00;99.90;;;;;;5063683;28;20094;-72
2022/12/25 08:03:01;;;;;;;;;;;7.00;99.90;;;;;;5063445;28;19956;-72
2022/12/25 08:05:35;;;;;;;;;;;7.00;99.90;;;;;;5063441;28;19956;-72
2022/12/25 08:08:01;;;;;;;;;;;7.00;99.90;;;;;;5063270;28;19995;-72
2022/12/25 08:10:28;;;;;;;;;;;7.00;99.90;;;;;;5063108;28;19928;-72
2022/12/25 08:12:55;;;;;;;;;;;7.00;99.90;;;;;;5062671;28;19983;-72
2022/12/25 08:15:22;;;;;;;;;;;7.00;99.90;;;;;;5067591;28;19920;-73
2022/12/25 08:17:48;;;;;;;;;;;7.10;99.90;;;;;;5067050;28;19956;-72
2022/12/25 08:20:15;;;;;;;;;;;7.10;99.90;;;;;;5067430;28;19963;-72
2022/12/25 08:22:43;;;;;;;;;;;7.10;99.90;;;;;;5067467;28;19984;-72
2022/12/25 08:25:16;;;;;;;;;;;7.20;99.90;;;;;;5065662;28;19921;-72
2022/12/25 08:27:48;;;;;;;;;;;7.10;99.90;;;;;;5059801;28;19983;-72
2022/12/25 08:30:15;;;;;;;;;;;7.10;99.90;;;;;;5067346;28;19988;-72
2022/12/25 08:32:42;;;;;;;;;;;7.20;99.90;;;;;;5066916;28;20199;-72
2022/12/25 08:35:08;;;;;;;;;;;7.20;99.90;;;;;;5067088;28;19927;-71
2022/12/25 08:37:35;;;;;;;;;;;7.20;99.90;;;;;;5056441;28;19956;-72
2022/12/25 08:40:04;;;;;;;;;;;7.20;99.90;;;;;;5066299;28;20098;-71
2022/12/25 08:42:30;;;;;;;;;;;7.20;99.90;;;;;;5066598;28;19980;-72
2022/12/25 08:44:57;;;;;;;;;;;7.20;99.90;;;;;;5057184;28;19928;-72
2022/12/25 08:47:24;;;;;;;;;;;7.20;99.90;;;;;;5046006;28;19924;-72
2022/12/25 08:49:50;;;;;;;;;;;7.20;99.90;;;;;;5061580;28;19963;-73
2022/12/25 08:52:17;;;;;;;;;;;7.20;99.90;;;;;;5065970;28;19964;-72
2022/12/25 08:54:43;;;;;;;;;;;7.10;99.90;;;;;;5060605;28;19996;-72
2022/12/25 08:57:11;;;;;;;;;;;7.10;99.90;;;;;;5065422;28;19984;-72
2022/12/25 08:59:38;;;;;;;;;;;7.10;99.90;;;;;;5066520;28;19979;-73
2022/12/25 09:02:05;;;;;;;;;;;7.10;99.90;;;;;;5065380;28;19987;-72
2022/12/25 09:04:31;;;;;;;;;;;7.20;99.90;;;;;;5066745;28;19952;-72
2022/12/25 09:06:58;;;;;;;;;;;7.20;99.90;;;;;;5066079;28;20223;-71
2022/12/25 09:09:25;;;;;;;;;;;7.20;99.90;;;;;;5065997;28;19920;-71
2022/12/25 09:11:52;;;;;;;;;;;7.30;99.90;;;;;;5065370;28;19927;-73
2022/12/25 09:14:20;;;;;;;;;;;7.30;99.90;;;;;;5065925;28;19921;-72
2022/12/25 09:16:49;;;;;;;;;;;7.30;99.90;;;;;;5065792;28;19988;-71
2022/12/25 09:19:16;;;;;;;;;;;7.30;99.90;;;;;;5065877;28;20223;-72
2022/12/25 09:21:42;;;;;;;;;;;7.30;99.90;;;;;;5066599;28;19952;-72
2022/12/25 09:24:09;;;;;;;;;;;7.40;99.90;;;;;;5058592;28;19988;-70
2022/12/25 09:26:36;;;;;;;;;;;7.40;99.90;;;;;;5057715;28;19920;-73
2022/12/25 09:29:06;;;;;;;;;;;7.40;99.90;;;;;;5065837;28;19920;-71
2022/12/25 09:31:34;;;;;;;;;;;7.50;99.90;;;;;;5065485;28;19952;-73
2022/12/25 09:34:00;;;;;;;;;;;7.50;99.90;;;;;;5065719;28;19927;-74
2022/12/25 09:36:27;;;;;;;;;;;7.50;99.90;;;;;;5063574;28;19978;-73
2022/12/25 09:38:54;;;;;;;;;;;7.60;99.90;;;;;;5049020;28;19959;-73
2022/12/25 09:41:24;;;;;;;;;;;7.60;99.90;;;;;;5056679;28;19952;-74
2022/12/25 09:43:57;;;;;;;;;;;7.70;99.90;;;;;;5064805;28;19985;-73
2022/12/25 09:46:26;;;;;;;;;;;7.80;99.90;;;;;;5065246;28;19921;-74
2022/12/25 09:48:58;;;;;;;;;;;7.80;99.90;;;;;;5065324;28;19927;-73
2022/12/25 09:51:27;;;;;;;;;;;7.80;99.90;;;;;;5064417;28;19929;-72
2022/12/25 09:53:58;;;;;;;;;;;7.90;99.90;;;;;;5065229;28;19983;-73
2022/12/25 09:56:25;;;;;;;;;;;7.90;99.90;;;;;;5064799;28;19920;-72
2022/12/25 09:58:52;;;;;;;;;;;7.90;99.90;;;;;;5065416;28;19929;-73
2022/12/25 10:01:21;;;;;;;;;;;8.00;99.90;;;;;;5065411;28;19952;-74
2022/12/25 10:04:04;;;;;;;;;;;8.00;99.90;;;;;;5061252;28;19952;-70
2022/12/25 10:06:36;;;;;;;;;;;8.00;99.90;;;;;;5057586;28;20001;-72
2022/12/25 10:09:09;;;;;;;;;;;8.00;99.90;;;;;;5064579;28;19927;-70
2022/12/25 10:11:43;;;;;;;;;;;8.10;99.90;;;;;;5062492;28;19957;-71
2022/12/25 10:14:16;;;;;;;;;;;8.00;99.90;;;;;;5056587;28;19980;-71
2022/12/25 10:16:49;;;;;;;;;;;8.10;99.90;;;;;;5055714;28;20192;-72
2022/12/25 10:19:33;;;;;;;;;;;8.20;99.90;;;;;;5065023;28;19921;-72
2022/12/25 10:22:03;;;;;;;;;;;8.30;99.90;;;;;;5054393;28;19985;-72
2022/12/25 10:24:33;;;;;;;;;;;8.30;99.90;;;;;;5058956;28;19921;-72
2022/12/25 10:27:01;;;;;;;;;;;8.40;99.90;;;;;;5061544;28;19927;-72
2022/12/25 10:29:30;;;;;;;;;;;8.50;99.90;;;;;;5064202;28;19983;-72
2022/12/25 10:31:57;;;;;;;;;;;8.60;99.90;;;;;;5044568;28;19921;-72
2022/12/25 10:34:23;;;;;;;;;;;8.60;99.90;;;;;;5054324;28;19988;-72
2022/12/25 10:36:50;;;;;;;;;;;8.70;99.90;;;;;;5059837;28;19921;-70
2022/12/25 10:39:20;;;;;;;;;;;8.90;99.90;;;;;;5063969;28;19952;-70
2022/12/25 10:41:59;;;;;;;;;;;9.10;99.90;;;;;;5051638;28;19987;-74
2022/12/25 10:44:26;;;;;;;;;;;9.30;99.90;;;;;;5045352;28;20004;-69
2022/12/25 10:46:59;;;;;;;;;;;9.50;99.90;;;;;;5047587;28;19963;-73
2022/12/25 10:49:37;;;;;;;;;;;9.60;99.90;;;;;;5043922;28;19980;-74
2022/12/25 10:52:18;;;;;;;;;;;9.80;99.90;;;;;;5044274;28;19921;-74
2022/12/25 10:54:46;;;;;;;;;;;9.90;99.90;;;;;;5044158;28;19956;-74
2022/12/25 10:57:16;;;;;;;;;;;10.10;99.90;;;;;;5043620;28;20003;-74
2022/12/25 10:59:43;;;;;;;;;;;10.20;99.90;;;;;;5044019;28;19960;-74
2022/12/25 11:02:14;;;;;;;;;;;10.30;99.90;;;;;;5044349;28;20169;-74
2022/12/25 11:04:40;;;;;;;;;;;10.30;99.90;;;;;;5044268;28;19984;-74
2022/12/25 11:07:13;;;;;;;;;;;10.30;99.90;;;;;;5043936;28;19921;-73
2022/12/25 11:09:39;;;;;;;;;;;10.20;99.90;;;;;;5044132;28;19996;-74
2022/12/25 11:12:15;;;;;;;;;;;10.30;99.90;;;;;;5044131;28;19980;-74
2022/12/25 11:14:51;;;;;;;;;;;10.20;99.90;;;;;;5043751;28;20209;-74
2022/12/25 11:17:21;;;;;;;;;;;10.20;99.90;;;;;;5043868;28;20184;-74
2022/12/25 11:19:51;;;;;;;;;;;10.40;99.90;;;;;;5043713;28;19989;-75
2022/12/25 11:22:18;;;;;;;;;;;10.60;99.90;;;;;;5043815;28;19957;-74
2022/12/25 11:24:45;;;;;;;;;;;10.80;99.90;;;;;;5043883;28;19928;-74
2022/12/25 11:27:21;;;;;;;;;;;11.00;99.90;;;;;;5043675;28;19956;-74
2022/12/25 11:29:49;;;;;;;;;;;11.20;99.90;;;;;;5043968;28;19984;-74
2022/12/25 11:32:18;;;;;;;;;;;11.30;99.90;;;;;;5043714;28;19984;-74
2022/12/25 11:34:45;;;;;;;;;;;11.30;99.90;;;;;;5043660;28;20000;-74
2022/12/25 11:37:15;;;;;;;;;;;11.30;99.90;;;;;;5043507;28;20014;-73
2022/12/25 11:39:42;;;;;;;;;;;11.40;99.90;;;;;;5043442;28;19986;-74
2022/12/25 11:42:12;;;;;;;;;;;11.30;99.90;;;;;;5043768;28;19984;-73
2022/12/25 11:44:43;;;;;;;;;;;11.20;99.90;;;;;;5043972;28;20079;-73
2022/12/25 11:47:15;;;;;;;;;;;11.20;99.90;;;;;;5043109;28;20260;-74
2022/12/25 11:49:44;;;;;;;;;;;11.20;99.90;;;;;;5043042;28;19988;-74
2022/12/25 11:52:11;;;;;;;;;;;11.10;99.90;;;;;;5043189;28;19984;-73
2022/12/25 11:54:43;;;;;;;;;;;11.10;99.90;;;;;;5043306;28;19921;-73
2022/12/25 11:57:11;;;;;;;;;;;11.20;99.90;;;;;;5043392;28;19921;-73
2022/12/25 11:59:49;;;;;;;;;;;11.30;99.90;;;;;;5043387;28;19927;-73
2022/12/25 12:02:21;;;;;;;;;;;11.30;99.90;;;;;;5043616;28;19984;-74
2022/12/25 12:04:50;;;;;;;;;;;11.50;99.90;;;;;;5043282;28;19984;-74
2022/12/25 12:07:21;;;;;;;;;;;11.70;99.90;;;;;;5043095;28;20225;-74
2022/12/25 12:09:51;;;;;;;;;;;11.80;99.90;;;;;;5043158;28;19984;-74
2022/12/25 12:12:21;;;;;;;;;;;12.00;99.90;;;;;;5043173;28;20120;-73
2022/12/25 12:14:52;;;;;;;;;;;12.00;99.90;;;;;;5043138;28;20199;-74
2022/12/25 12:17:20;;;;;;;;;;;12.00;99.90;;;;;;5043002;28;19929;-74
2022/12/25 12:19:47;;;;;;;;;;;12.00;99.90;;;;;;5043244;28;20176;-74
2022/12/25 12:22:17;;;;;;;;;;;12.00;99.90;;;;;;5043453;28;19927;-72
2022/12/25 12:24:44;;;;;;;;;;;11.90;99.90;;;;;;5043294;28;19921;-74
2022/12/25 12:27:20;;;;;;;;;;;11.90;99.90;;;;;;5043148;28;19984;-73
2022/12/25 12:29:49;;;;;;;;;;;12.00;99.90;;;;;;5043420;28;19921;-74
2022/12/25 12:32:27;;;;;;;;;;;12.00;99.90;;;;;;5042964;28;19984;-73
2022/12/25 12:34:55;;;;;;;;;;;12.00;99.90;;;;;;5042962;28;20230;-73
2022/12/25 12:37:24;;;;;;;;;;;11.90;99.90;;;;;;5043054;28;19986;-73
2022/12/25 12:39:52;;;;;;;;;;;11.80;99.90;;;;;;5043245;28;19964;-75
2022/12/25 12:42:22;;;;;;;;;;;11.70;99.90;;;;;;5043037;28;20228;-74
2022/12/25 12:44:49;;;;;;;;;;;11.60;99.90;;;;;;5043076;28;19952;-74
2022/12/25 12:47:29;;;;;;;;;;;11.60;99.90;;;;;;5042789;28;19921;-74
2022/12/25 12:49:57;;;;;;;;;;;11.60;99.90;;;;;;5042925;28;19956;-73
2022/12/25 12:52:24;;;;;;;;;;;11.70;99.90;;;;;;5043024;28;19988;-73
2022/12/25 12:54:55;;;;;;;;;;;11.70;99.90;;;;;;5042787;28;20267;-74
2022/12/25 12:57:23;;;;;;;;;;;11.70;99.90;;;;;;5042981;28;19921;-74
2022/12/25 12:59:49;;;;;;;;;;;11.70;99.90;;;;;;5044550;28;20156;-74
2022/12/25 13:02:26;;;;;;;;;;;11.70;99.90;;;;;;5047600;28;20180;-73
2022/12/25 13:04:59;;;;;;;;;;;11.70;99.90;;;;;;5046702;28;19992;-72
2022/12/25 13:07:43;;;;;;;;;;;11.70;99.90;;;;;;5046527;28;20160;-73
2022/12/25 13:10:13;;;;;;;;;;;11.70;99.90;;;;;;5046450;28;19921;-72
2022/12/25 13:12:40;;;;;;;;;;;11.80;99.90;;;;;;5046048;28;20235;-73
2022/12/25 13:15:12;;;;;;;;;;;11.90;99.90;;;;;;5046377;28;20186;-72
2022/12/25 13:17:38;;;;;;;;;;;12.00;99.90;;;;;;5046019;28;19952;-72
2022/12/25 13:20:15;;;;;;;;;;;12.10;99.90;;;;;;5046629;28;19993;-72
2022/12/25 13:22:50;;;;;;;;;;;12.10;99.90;;;;;;5048825;28;19920;-74
2022/12/25 13:25:19;;;;;;;;;;;12.10;99.90;;;;;;5047006;28;19925;-73
2022/12/25 13:27:45;;;;;;;;;;;12.00;99.90;;;;;;5046127;28;19952;-73
2022/12/25 13:30:13;;;;;;;;;;;12.00;99.90;;;;;;5046364;28;20149;-73
2022/12/25 13:32:40;;;;;;;;;;;12.00;99.90;;;;;;5046104;28;20132;-73
2022/12/25 13:35:14;;;;;;;;;;;11.90;99.90;;;;;;5045980;28;20136;-73
2022/12/25 13:37:41;;;;;;;;;;;11.90;99.90;;;;;;5045573;28;19988;-73
2022/12/25 13:40:18;;;;;;;;;;;11.80;99.90;;;;;;5046103;28;19988;-74
2022/12/25 13:42:45;;;;;;;;;;;11.80;99.90;;;;;;5045824;28;20180;-73
2022/12/25 13:45:19;;;;;;;;;;;11.80;99.90;;;;;;5045866;28;19917;-74
2022/12/25 13:47:48;;;;;;;;;;;11.80;99.90;;;;;;5045830;28;19921;-74
2022/12/25 13:50:20;;;;;;;;;;;11.80;99.90;;;;;;5045687;28;20024;-74
2022/12/25 13:52:47;;;;;;;;;;;11.70;99.90;;;;;;5045662;28;19993;-73
2022/12/25 13:55:14;;;;;;;;;;;11.70;99.90;;;;;;5045823;28;19992;-73
2022/12/25 13:57:45;;;;;;;;;;;11.60;99.90;;;;;;5045337;28;19959;-73
2022/12/25 14:00:17;;;;;;;;;;;11.70;99.90;;;;;;5045541;28;19928;-73
2022/12/25 14:02:45;;;;;;;;;;;11.70;99.90;;;;;;5045834;28;20137;-73
2022/12/25 14:05:23;;;;;;;;;;;11.70;99.90;;;;;;5045417;28;19988;-73
2022/12/25 14:07:50;;;;;;;;;;;11.80;99.90;;;;;;5045424;28;19921;-73
2022/12/25 14:10:17;;;;;;;;;;;11.80;99.90;;;;;;5045214;28;19977;-73
2022/12/25 14:12:44;;;;;;;;;;;11.80;99.90;;;;;;5045023;28;19984;-73
2022/12/25 14:15:14;;;;;;;;;;;11.80;99.90;;;;;;5045122;28;20269;-73
2022/12/25 14:17:41;;;;;;;;;;;11.80;99.90;;;;;;5045327;28;19988;-73
2022/12/25 14:20:21;;;;;;;;;;;11.90;99.90;;;;;;5045172;28;19992;-73
2022/12/25 14:22:50;;;;;;;;;;;11.80;99.90;;;;;;5045425;28;20111;-73
2022/12/25 14:25:16;;;;;;;;;;;11.80;99.90;;;;;;5045207;28;19921;-73
2022/12/25 14:27:47;;;;;;;;;;;11.70;99.90;;;;;;5044176;28;20901;-73
2022/12/25 14:30:14;;;;;;;;;;;11.70;99.90;;;;;;5044935;28;19921;-73
2022/12/25 14:32:44;;;;;;;;;;;11.60;99.90;;;;;;5045182;28;20119;-73
2022/12/25 14:35:11;;;;;;;;;;;11.50;99.90;;;;;;5044809;28;20003;-73
2022/12/25 14:37:40;;;;;;;;;;;11.50;99.90;;;;;;5044746;28;19925;-73
2022/12/25 14:40:20;;;;;;;;;;;11.50;99.90;;;;;;5045099;28;19927;-72
2022/12/25 14:42:54;;;;;;;;;;;11.40;99.90;;;;;;5045105;28;19989;-72
2022/12/25 14:45:25;;;;;;;;;;;11.40;99.90;;;;;;5044955;28;19988;-72
2022/12/25 14:47:53;;;;;;;;;;;11.40;99.90;;;;;;5044731;28;19988;-74
2022/12/25 14:50:25;;;;;;;;;;;11.30;99.90;;;;;;5044842;28;19979;-74
2022/12/25 14:52:52;;;;;;;;;;;11.30;99.90;;;;;;5044520;28;19928;-74
2022/12/25 14:55:20;;;;;;;;;;;11.20;99.90;;;;;;5044618;28;19988;-73
2022/12/25 14:57:48;;;;;;;;;;;11.20;99.90;;;;;;5044429;28;19920;-72
2022/12/25 15:00:21;;;;;;;;;;;11.20;99.90;;;;;;5044604;28;20144;-73
2022/12/25 15:02:48;;;;;;;;;;;11.20;99.90;;;;;;5045312;28;19983;-73
2022/12/25 15:05:29;;;;;;;;;;;11.20;99.90;;;;;;5044730;28;19952;-73
2022/12/25 15:08:03;;;;;;;;;;;11.20;99.90;;;;;;5044269;28;20173;-73
2022/12/25 15:10:31;;;;;;;;;;;11.10;99.90;;;;;;5044706;28;19921;-73
2022/12/25 15:12:58;;;;;;;;;;;11.00;99.90;;;;;;5044395;28;19921;-73
2022/12/25 15:15:24;;;;;;;;;;;11.00;99.90;;;;;;5044253;28;20004;-73
2022/12/25 15:17:51;;;;;;;;;;;11.00;99.90;;;;;;5044045;28;19988;-72
2022/12/25 15:20:18;;;;;;;;;;;11.00;99.90;;;;;;5044066;28;19928;-73
2022/12/25 15:22:45;;;;;;;;;;;11.00;99.90;;;;;;5043492;28;19988;-73
2022/12/25 15:25:12;;;;;;;;;;;11.00;99.90;;;;;;5044136;28;19948;-73
2022/12/25 15:27:41;;;;;;;;;;;10.90;99.90;;;;;;5043984;28;19944;-73
2022/12/25 15:30:09;;;;;;;;;;;10.90;99.90;;;;;;5044140;28;19966;-73
2022/12/25 15:32:35;;;;;;;;;;;10.80;99.90;;;;;;5044196;28;19967;-73
2022/12/25 15:35:02;;;;;;;;;;;10.80;99.90;;;;;;5044066;28;19988;-73
2022/12/25 15:37:28;;;;;;;;;;;10.70;99.90;;;;;;5043626;28;19992;-73
2022/12/25 15:40:01;;;;;;;;;;;10.70;99.90;;;;;;5044141;28;19959;-73
2022/12/25 15:42:27;;;;;;;;;;;10.70;99.90;;;;;;5044192;28;20219;-73
2022/12/25 15:44:55;;;;;;;;;;;10.70;99.90;;;;;;5043628;28;19959;-73
2022/12/25 15:47:22;;;;;;;;;;;10.70;99.90;;;;;;5043426;28;19921;-73
2022/12/25 15:49:49;;;;;;;;;;;10.60;99.90;;;;;;5043968;28;19975;-73
2022/12/25 15:52:16;;;;;;;;;;;10.60;99.90;;;;;;5043553;28;19968;-73
2022/12/25 15:54:43;;;;;;;;;;;10.60;99.90;;;;;;5043714;28;19927;-73
2022/12/25 15:57:13;;;;;;;;;;;10.60;99.90;;;;;;5043315;28;19952;-73
2022/12/25 15:59:40;;;;;;;;;;;10.60;99.90;;;;;;5043429;28;19988;-73
2022/12/25 16:02:13;;;;;;;;;;;10.50;99.90;;;;;;5043877;28;19921;-73
2022/12/25 16:04:41;;;;;;;;;;;10.60;99.90;;;;;;5043927;28;20000;-73
2022/12/25 16:07:09;;;;;;;;;;;10.60;99.90;;;;;;5043631;28;19959;-73
2022/12/25 16:09:35;;;;;;;;;;;10.50;99.90;;;;;;5044040;28;19927;-74
2022/12/25 16:12:02;;;;;;;;;;;10.50;99.90;;;;;;5043794;28;19944;-74
2022/12/25 16:14:28;;;;;;;;;;;10.40;99.90;;;;;;5043431;28;19956;-73
2022/12/25 16:16:55;;;;;;;;;;;10.40;99.90;;;;;;5043365;28;19960;-74
2022/12/25 16:19:23;;;;;;;;;;;10.40;99.90;;;;;;5043613;28;19949;-73
2022/12/25 16:21:50;;;;;;;;;;;10.40;99.90;;;;;;5043633;28;19927;-74
2022/12/25 16:24:16;;;;;;;;;;;10.40;99.90;;;;;;5043625;28;19989;-74